Main page
METAR-TAF:

METAR-TAF

Airports :

Pau Pyrénées Airport

Pau, France

latitude: 43-23N, longitude: 000-25W, elevation: 188 m

Current weather observation

The report was made 26 minutes ago, at 19:30 UTC
Wind 4 kt from the Northeast
Temperature 3°C
Humidity 70%
Pressure 1033 hPa
Visibility 10 km or more
Broken clouds at a height of 4000 ft

METAR: LFBP 211930Z AUTO 04004KT 9999 BKN040 03/M02 Q1033 NOSIG

Time: 20:56 (19:56 UTC)

Forecast

The report was made 2 hours and 56 minutes ago, at 17:00 UTC
Forecast valid from 21 at 18 UTC to 22 at 18 UTC
Wind 5 kt from the East/Northeast
Visibility 10 km or more
Overcast at a height of 4000 ft
Becoming
from 21 at 19 UTC to 21 at 21 UTC
Visibility 10 km or more
no clouds below 1500 m and no cumulonimbus
Probability 30% :
Temporary
from 22 at 03 UTC to 22 at 08 UTC
Visibility: 4000 m
mist

TAF: LFBP 211700Z 2118/2218 06005KT 9999 OVC040 BECMG 2119/2121 CAVOK PROB30 TEMPO 2203/2208 4000 BR NSC

Weather observations and forecasts of more than 4000 airports (METAR and TAF reports).

The available stations are represented by yellow and red dots on the map.

Hover mouse over dot to see the name of the station.

Then click to see weather observations and forecasts.

To change the map : click on the green buttons with a black cross to zoom in, on the green button with a dash to zoom out, or on the green arrows for adjacent maps.


METAR-TAF: